Time;durP1;ratioP1;P1;durP2;ratioP2;P2;SDS_P1;SDS_P2;PMS_P1;PMS_P2;Temp;Humidity;BMP_temperature;BMP_pressure;BME280_temperature;BME280_humidity;BME280_pressure;Samples;Min_cycle;Max_cycle;Signal;HPM_P1;HPM_P2
2022/03/15 00:00:10;;;;;;;10.48;5.40;;;8.00;99.90;;;;;;4950884;28;20411;-73
2022/03/15 00:02:37;;;;;;;16.33;6.93;;;7.90;99.90;;;;;;4945292;29;20051;-73
2022/03/15 00:05:05;;;;;;;18.50;6.60;;;7.80;99.90;;;;;;4947933;28;20441;-73
2022/03/15 00:07:32;;;;;;;9.23;6.03;;;7.80;99.90;;;;;;4948092;28;20047;-74
2022/03/15 00:10:03;;;;;;;10.98;5.18;;;7.70;99.90;;;;;;4949996;29;20062;-73
2022/03/15 00:12:30;;;;;;;8.50;5.65;;;7.70;99.90;;;;;;4962687;28;20051;-73
2022/03/15 00:14:57;;;;;;;10.57;5.38;;;7.60;99.90;;;;;;4944539;29;20063;-70
2022/03/15 00:17:24;;;;;;;94.50;69.95;;;7.60;99.90;;;;;;4938419;29;20055;-74
2022/03/15 00:19:54;;;;;;;57.33;38.78;;;7.60;99.90;;;;;;4933291;29;20447;-73
2022/03/15 00:22:22;;;;;;;20.83;12.35;;;7.50;99.90;;;;;;4950727;29;20054;-73
2022/03/15 00:24:49;;;;;;;10.27;7.00;;;7.40;99.90;;;;;;4953346;29;20051;-74
2022/03/15 00:27:16;;;;;;;13.85;6.28;;;7.40;99.90;;;;;;4951999;29;20062;-74
2022/03/15 00:29:46;;;;;;;10.88;5.40;;;7.40;99.90;;;;;;4938700;29;20150;-74
2022/03/15 00:32:19;;;;;;;11.55;6.00;;;7.30;99.90;;;;;;4953012;29;20047;-73
2022/03/15 00:34:47;;;;;;;7.38;4.57;;;7.30;99.90;;;;;;4919983;29;20055;-74
2022/03/15 00:37:14;;;;;;;8.07;4.57;;;7.30;99.90;;;;;;4943894;28;20048;-74
2022/03/15 00:39:41;;;;;;;11.55;5.90;;;7.30;99.90;;;;;;4962516;28;20054;-74
2022/03/15 00:42:08;;;;;;;7.65;4.22;;;7.20;99.90;;;;;;4964318;28;20055;-74
2022/03/15 00:44:35;;;;;;;11.82;4.63;;;7.20;99.90;;;;;;4940249;29;20058;-74
2022/03/15 00:47:03;;;;;;;9.32;4.32;;;7.20;99.90;;;;;;4965032;28;20054;-74
2022/03/15 00:49:29;;;;;;;8.95;4.70;;;7.20;99.90;;;;;;4968095;28;20050;-73
2022/03/15 00:51:57;;;;;;;11.52;5.60;;;7.20;99.90;;;;;;4944297;29;20557;-74
2022/03/15 00:54:24;;;;;;;6.97;3.83;;;7.10;99.90;;;;;;4967112;28;20059;-74
2022/03/15 00:56:54;;;;;;;9.88;5.43;;;7.10;99.90;;;;;;4956472;28;20077;-74
2022/03/15 00:59:21;;;;;;;8.77;4.57;;;7.10;99.90;;;;;;4941393;29;20056;-74
2022/03/15 01:01:51;;;;;;;7.55;4.22;;;7.10;99.90;;;;;;4967342;28;20063;-74
2022/03/15 01:04:21;;;;;;;8.88;4.25;;;7.00;99.90;;;;;;4940125;29;20048;-74
2022/03/15 01:06:47;;;;;;;8.05;4.20;;;7.00;99.90;;;;;;4964644;28;20044;-74
2022/03/15 01:09:14;;;;;;;8.18;4.10;;;6.90;99.90;;;;;;4949102;29;20043;-74
2022/03/15 01:11:41;;;;;;;6.80;4.20;;;6.90;99.90;;;;;;4964350;28;20043;-74
2022/03/15 01:14:08;;;;;;;10.88;4.65;;;6.80;99.90;;;;;;4967653;28;20411;-73
2022/03/15 01:16:37;;;;;;;6.10;3.83;;;6.80;99.90;;;;;;4951675;28;20051;-73
2022/03/15 01:19:06;;;;;;;9.35;4.25;;;6.70;99.90;;;;;;4956974;28;20055;-74
2022/03/15 01:21:35;;;;;;;7.50;4.65;;;6.70;99.90;;;;;;4948489;29;20407;-74
2022/03/15 01:24:02;;;;;;;8.48;4.70;;;6.70;99.90;;;;;;4940260;29;20051;-73
2022/03/15 01:26:29;;;;;;;7.70;3.85;;;6.70;99.90;;;;;;4972222;28;20529;-74
2022/03/15 01:28:55;;;;;;;9.55;4.43;;;6.60;99.90;;;;;;4959136;28;20378;-74
2022/03/15 01:31:25;;;;;;;12.55;5.32;;;6.60;99.90;;;;;;4959834;28;20381;-73
2022/03/15 01:33:52;;;;;;;7.82;4.25;;;6.50;99.90;;;;;;4951776;29;20137;-74
2022/03/15 01:36:19;;;;;;;9.23;4.68;;;6.50;99.90;;;;;;4954629;29;20046;-74
2022/03/15 01:38:47;;;;;;;6.85;4.22;;;6.50;99.90;;;;;;4954112;29;20075;-74
2022/03/15 01:41:14;;;;;;;5.30;3.67;;;6.50;99.90;;;;;;4952446;29;20058;-74
2022/03/15 01:43:47;;;;;;;8.70;4.72;;;6.50;99.90;;;;;;4938067;29;20113;-74
2022/03/15 01:46:14;;;;;;;8.25;4.53;;;6.50;99.90;;;;;;4971196;28;20491;-74
2022/03/15 01:48:41;;;;;;;7.65;4.32;;;6.50;99.90;;;;;;4943819;29;20063;-73
2022/03/15 01:51:09;;;;;;;9.60;4.22;;;6.60;99.90;;;;;;4971467;28;20051;-73
2022/03/15 01:53:37;;;;;;;12.65;4.18;;;6.60;99.90;;;;;;4939380;29;20070;-73
2022/03/15 01:56:05;;;;;;;13.88;4.80;;;6.60;99.90;;;;;;4954804;28;20082;-74
2022/03/15 01:58:32;;;;;;;9.75;4.65;;;6.60;99.90;;;;;;4950928;28;20065;-73
2022/03/15 02:00:59;;;;;;;7.85;3.63;;;6.60;99.90;;;;;;4942766;29;20052;-74
2022/03/15 02:03:27;;;;;;;7.40;3.92;;;6.60;99.90;;;;;;4953573;28;20066;-74
2022/03/15 02:05:54;;;;;;;7.38;4.85;;;6.60;99.90;;;;;;4967785;28;20082;-74
2022/03/15 02:08:23;;;;;;;9.60;4.93;;;6.70;99.90;;;;;;4969241;28;20106;-74
2022/03/15 02:10:50;;;;;;;8.25;4.75;;;6.70;99.90;;;;;;4953664;29;20055;-73
2022/03/15 02:13:17;;;;;;;8.25;5.00;;;6.70;99.90;;;;;;4951749;29;20060;-74
2022/03/15 02:15:44;;;;;;;10.68;4.82;;;6.80;99.90;;;;;;4970949;28;20054;-73
2022/03/15 02:18:11;;;;;;;11.43;5.18;;;6.80;99.90;;;;;;4955848;28;20047;-74
2022/03/15 02:20:38;;;;;;;8.30;5.07;;;6.80;99.90;;;;;;4962125;28;20069;-74
2022/03/15 02:23:05;;;;;;;12.75;5.07;;;6.80;99.90;;;;;;4944708;29;20062;-74
2022/03/15 02:25:32;;;;;;;11.32;5.72;;;6.90;99.90;;;;;;4944695;28;20055;-74
2022/03/15 02:27:59;;;;;;;9.52;5.20;;;6.90;99.90;;;;;;4939167;29;20059;-74
2022/03/15 02:30:26;;;;;;;13.60;4.85;;;6.90;99.90;;;;;;4967573;28;20503;-74
2022/03/15 02:32:54;;;;;;;10.25;5.35;;;7.00;99.90;;;;;;4937566;29;20051;-74
2022/03/15 02:35:22;;;;;;;9.52;5.00;;;7.00;99.90;;;;;;4969280;28;20039;-73
2022/03/15 02:37:49;;;;;;;15.13;5.30;;;7.10;99.90;;;;;;4962660;28;20107;-74
2022/03/15 02:40:16;;;;;;;8.32;4.85;;;7.10;99.90;;;;;;4941883;28;20083;-74
2022/03/15 02:42:43;;;;;;;13.43;5.95;;;7.10;99.90;;;;;;4967702;28;20050;-75
2022/03/15 02:45:10;;;;;;;12.60;4.88;;;7.10;99.90;;;;;;4971454;28;20055;-74
2022/03/15 02:47:40;;;;;;;7.60;4.97;;;7.20;99.90;;;;;;4953413;29;20505;-74
2022/03/15 02:50:07;;;;;;;8.10;3.90;;;7.20;99.90;;;;;;4953860;29;20047;-74
2022/03/15 02:52:34;;;;;;;11.40;5.18;;;7.20;99.90;;;;;;4972205;28;20098;-73
2022/03/15 02:55:01;;;;;;;11.20;5.57;;;7.30;99.90;;;;;;4961936;29;20103;-74
2022/03/15 02:57:28;;;;;;;12.48;7.03;;;7.30;99.90;;;;;;4958606;29;20062;-74
2022/03/15 02:59:55;;;;;;;8.80;5.53;;;7.30;99.90;;;;;;4973933;28;20046;-74
2022/03/15 03:02:24;;;;;;;8.75;4.75;;;7.30;99.90;;;;;;4947978;28;20054;-74
2022/03/15 03:04:51;;;;;;;12.32;6.22;;;7.30;99.90;;;;;;4944464;29;20076;-74
2022/03/15 03:07:19;;;;;;;13.40;5.07;;;7.30;99.90;;;;;;4958416;29;20066;-73
2022/03/15 03:09:47;;;;;;;10.93;5.70;;;7.30;99.90;;;;;;4947805;29;20056;-74
2022/03/15 03:12:15;;;;;;;12.63;5.32;;;7.30;99.90;;;;;;4947709;29;20073;-73
2022/03/15 03:14:47;;;;;;;11.75;6.10;;;7.40;99.90;;;;;;4954825;28;20062;-73
2022/03/15 03:17:14;;;;;;;12.13;6.10;;;7.30;99.90;;;;;;4945659;28;20051;-73
2022/03/15 03:19:44;;;;;;;9.93;4.75;;;7.40;99.90;;;;;;4954113;29;20066;-74
2022/03/15 03:22:13;;;;;;;10.25;4.55;;;7.30;99.90;;;;;;4936157;29;20051;-76
2022/03/15 03:24:40;;;;;;;11.30;4.88;;;7.30;99.90;;;;;;4950136;28;20047;-70
2022/03/15 03:27:07;;;;;;;39.63;26.67;;;7.30;99.90;;;;;;4950426;29;20051;-74
2022/03/15 03:29:34;;;;;;;113.85;92.38;;;7.40;99.90;;;;;;4937560;29;20058;-74
2022/03/15 03:32:01;;;;;;;18.50;11.82;;;7.30;99.90;;;;;;4969923;28;20077;-75
2022/03/15 03:34:28;;;;;;;11.77;6.90;;;7.30;99.90;;;;;;4967787;28;20479;-75
2022/03/15 03:36:55;;;;;;;13.43;6.30;;;7.30;99.90;;;;;;4954980;29;20047;-74
2022/03/15 03:39:28;;;;;;;13.98;5.00;;;7.20;99.90;;;;;;4947963;29;20547;-74
2022/03/15 03:41:55;;;;;;;10.52;5.07;;;7.20;99.90;;;;;;4944834;29;20055;-74
2022/03/15 03:44:22;;;;;;;8.65;4.82;;;7.10;99.90;;;;;;4968114;28;20059;-74
2022/03/15 03:46:51;;;;;;;14.23;5.93;;;7.10;99.90;;;;;;4968589;28;20043;-74
2022/03/15 03:49:21;;;;;;;14.65;6.28;;;7.10;99.90;;;;;;4965424;28;20054;-74
2022/03/15 03:51:48;;;;;;;11.98;5.95;;;7.10;99.90;;;;;;4946314;29;20142;-75
2022/03/15 03:54:15;;;;;;;11.85;5.80;;;7.00;99.90;;;;;;4950698;28;20051;-74
2022/03/15 03:56:42;;;;;;;17.50;6.82;;;7.00;99.90;;;;;;4960593;28;20047;-74
2022/03/15 03:59:11;;;;;;;14.07;5.70;;;7.00;99.90;;;;;;4964190;28;20142;-74
2022/03/15 04:01:40;;;;;;;12.27;5.75;;;6.90;99.90;;;;;;4961769;28;20047;-73
2022/03/15 04:04:07;;;;;;;9.88;5.60;;;6.90;99.90;;;;;;4960565;28;20042;-73
2022/03/15 04:06:34;;;;;;;15.23;6.82;;;6.90;99.90;;;;;;4944834;28;20089;-73
2022/03/15 04:09:01;;;;;;;15.82;6.40;;;6.90;99.90;;;;;;4947713;28;20502;-73
2022/03/15 04:11:31;;;;;;;12.30;5.72;;;6.90;99.90;;;;;;4958705;28;20058;-73
2022/03/15 04:14:03;;;;;;;13.18;5.70;;;6.90;99.90;;;;;;4959916;28;20051;-72
2022/03/15 04:16:30;;;;;;;11.40;6.85;;;6.80;99.90;;;;;;4952638;28;20479;-72
2022/03/15 04:18:58;;;;;;;13.43;5.75;;;6.80;99.90;;;;;;4943977;29;20403;-72
2022/03/15 04:21:27;;;;;;;12.18;5.80;;;6.80;99.90;;;;;;4941117;29;20126;-72
2022/03/15 04:23:55;;;;;;;11.32;5.20;;;6.80;99.90;;;;;;4944255;29;20543;-73
2022/03/15 04:26:22;;;;;;;10.40;5.68;;;6.70;99.90;;;;;;4961798;28;20106;-74
2022/03/15 04:28:49;;;;;;;24.90;14.07;;;6.60;99.90;;;;;;4934678;29;20059;-75
2022/03/15 04:31:16;;;;;;;344.75;221.73;;;6.60;99.90;;;;;;4955383;28;20046;-75
2022/03/15 04:33:44;;;;;;;373.27;231.70;;;6.70;99.90;;;;;;4959753;28;20554;-74
2022/03/15 04:36:11;;;;;;;463.85;326.23;;;6.70;99.90;;;;;;4943451;29;20051;-75
2022/03/15 04:38:37;;;;;;;120.15;76.07;;;6.60;99.90;;;;;;4958935;28;20062;-75
2022/03/15 04:41:07;;;;;;;28.05;19.52;;;6.60;99.90;;;;;;4942311;29;20126;-74
2022/03/15 04:43:34;;;;;;;17.05;10.73;;;6.60;99.90;;;;;;4951284;29;20043;-74
2022/03/15 04:46:01;;;;;;;16.40;9.02;;;6.60;99.90;;;;;;4950025;28;20046;-76
2022/03/15 04:48:33;;;;;;;80.90;54.25;;;6.50;99.90;;;;;;4955735;28;20398;-76
2022/03/15 04:51:00;;;;;;;467.02;370.20;;;6.50;99.90;;;;;;4938128;29;20051;-76
2022/03/15 04:53:26;;;;;;;71.38;63.75;;;6.50;99.90;;;;;;4950703;29;20054;-79
2022/03/15 04:55:53;;;;;;;531.00;386.55;;;6.50;99.90;;;;;;4935927;29;20058;-77
2022/03/15 04:58:20;;;;;;;316.13;213.13;;;6.50;99.90;;;;;;4945464;28;20051;-65
2022/03/15 05:00:47;;;;;;;288.65;230.95;;;6.50;99.90;;;;;;4939015;29;20105;-75
2022/03/15 05:03:16;;;;;;;427.83;366.02;;;6.50;99.90;;;;;;4933087;29;20079;-74
2022/03/15 05:05:44;;;;;;;140.77;107.63;;;6.50;99.90;;;;;;4933295;29;20047;-74
2022/03/15 05:08:11;;;;;;;42.78;32.20;;;6.50;99.90;;;;;;4933566;29;20056;-74
2022/03/15 05:13:26;;;;;;;17.92;9.70;;;6.50;99.90;;;;;;4933401;29;20064;-74
2022/03/15 05:15:53;;;;;;;15.52;8.70;;;6.40;99.90;;;;;;4918153;29;20051;-74
2022/03/15 05:18:20;;;;;;;14.90;7.32;;;6.40;99.90;;;;;;4932967;29;20510;-74
2022/03/15 05:20:47;;;;;;;10.02;5.97;;;6.30;99.90;;;;;;4933370;29;20488;-74
2022/03/15 05:23:14;;;;;;;17.55;7.68;;;6.30;99.90;;;;;;4933466;29;20064;-74
2022/03/15 05:25:41;;;;;;;10.38;5.93;;;6.20;99.90;;;;;;4941709;29;20043;-74
2022/03/15 05:28:11;;;;;;;8.90;5.65;;;6.20;99.90;;;;;;4952816;28;20119;-74
2022/03/15 05:30:38;;;;;;;10.60;6.35;;;6.10;99.90;;;;;;4955985;28;20050;-74
2022/03/15 05:33:06;;;;;;;7.80;5.22;;;6.00;99.90;;;;;;4955580;28;20129;-74
2022/03/15 05:35:33;;;;;;;12.35;5.82;;;6.00;99.90;;;;;;4973541;28;20383;-74
2022/03/15 05:38:04;;;;;;;8.90;5.40;;;6.00;99.90;;;;;;4964421;28;20058;-74
2022/03/15 05:40:31;;;;;;;8.60;4.85;;;5.90;99.90;;;;;;4952752;29;20066;-74
2022/03/15 05:42:58;;;;;;;13.85;6.32;;;5.80;99.90;;;;;;4952392;29;20058;-74
2022/03/15 05:45:28;;;;;;;11.43;5.95;;;5.80;99.90;;;;;;4936513;29;20407;-74
2022/03/15 05:47:55;;;;;;;10.13;5.95;;;5.80;99.90;;;;;;4953622;28;20054;-74
2022/03/15 05:50:22;;;;;;;10.93;5.28;;;5.80;99.90;;;;;;4953493;28;20063;-74
2022/03/15 05:52:49;;;;;;;11.05;5.50;;;5.70;99.90;;;;;;4953422;29;20058;-75
2022/03/15 05:55:16;;;;;;;15.25;7.25;;;5.70;99.90;;;;;;4953462;29;20442;-74
2022/03/15 05:57:49;;;;;;;16.08;6.35;;;5.60;99.90;;;;;;4953984;29;20138;-74
2022/03/15 06:00:17;;;;;;;9.70;5.55;;;5.60;99.90;;;;;;4954453;28;20057;-74
2022/03/15 06:02:43;;;;;;;10.25;5.18;;;5.60;99.90;;;;;;4972881;28;20059;-74
2022/03/15 06:05:12;;;;;;;10.27;6.05;;;5.50;99.90;;;;;;4955922;28;20074;-74
2022/03/15 06:07:45;;;;;;;9.68;5.60;;;5.50;99.90;;;;;;4956466;28;20051;-74
2022/03/15 06:10:12;;;;;;;11.80;6.18;;;5.50;99.90;;;;;;4972966;28;20062;-74
2022/03/15 06:12:39;;;;;;;11.13;6.35;;;5.40;99.90;;;;;;4958688;28;20494;-75
2022/03/15 06:15:08;;;;;;;14.38;6.30;;;5.40;99.90;;;;;;4974947;28;20096;-74
2022/03/15 06:17:56;;;;;;;13.48;6.03;;;5.40;99.90;;;;;;4975085;28;20054;-74
2022/03/15 06:20:24;;;;;;;14.52;6.32;;;5.40;99.90;;;;;;4974692;28;20150;-73
2022/03/15 06:22:53;;;;;;;11.45;6.07;;;5.40;99.90;;;;;;4959307;28;20161;-74
2022/03/15 06:25:20;;;;;;;11.95;5.93;;;5.40;99.90;;;;;;4973815;28;20055;-75
2022/03/15 06:27:47;;;;;;;9.45;5.80;;;5.40;99.90;;;;;;4939864;29;20089;-74
2022/03/15 06:30:18;;;;;;;11.63;6.80;;;5.40;99.90;;;;;;4956923;28;20434;-74
2022/03/15 06:32:45;;;;;;;12.98;6.45;;;5.40;99.90;;;;;;4975877;28;20063;-74
2022/03/15 06:35:13;;;;;;;9.45;5.53;;;5.40;99.90;;;;;;4975424;28;20042;-74
2022/03/15 06:37:44;;;;;;;12.98;6.35;;;5.40;99.90;;;;;;4954102;29;20043;-74
2022/03/15 06:40:16;;;;;;;9.73;5.85;;;5.40;99.90;;;;;;4956743;28;20114;-74
2022/03/15 06:42:43;;;;;;;11.30;5.72;;;5.50;99.90;;;;;;4955935;29;20134;-74
2022/03/15 06:45:10;;;;;;;11.43;6.90;;;5.50;99.90;;;;;;4939467;29;20110;-74
2022/03/15 06:47:41;;;;;;;13.60;7.22;;;5.50;99.90;;;;;;4924269;29;20278;-74
2022/03/15 06:50:14;;;;;;;9.70;6.28;;;5.60;99.90;;;;;;4954876;29;20062;-74
2022/03/15 06:52:42;;;;;;;12.60;8.27;;;5.60;99.90;;;;;;4940560;29;20390;-74
2022/03/15 06:55:09;;;;;;;17.35;6.13;;;5.70;99.90;;;;;;4939433;29;20067;-74
2022/03/15 06:57:36;;;;;;;12.15;6.40;;;5.80;99.90;;;;;;4939074;29;20051;-74
2022/03/15 07:00:05;;;;;;;14.95;6.72;;;5.80;99.90;;;;;;4954362;29;20048;-74
2022/03/15 07:02:32;;;;;;;11.65;5.97;;;5.90;99.90;;;;;;4923507;29;20495;-74
2022/03/15 07:04:59;;;;;;;12.77;7.38;;;5.90;99.90;;;;;;4954953;29;20058;-74
2022/03/15 07:07:26;;;;;;;8.15;6.38;;;6.00;99.90;;;;;;4954715;29;20051;-74
2022/03/15 07:09:59;;;;;;;12.27;7.43;;;5.90;99.90;;;;;;4954882;29;20543;-74
2022/03/15 07:12:26;;;;;;;14.90;8.43;;;6.00;99.90;;;;;;4955032;29;20088;-74
2022/03/15 07:14:54;;;;;;;17.00;8.70;;;6.00;99.90;;;;;;4954050;29;20517;-74
2022/03/15 07:17:21;;;;;;;15.48;9.32;;;6.10;99.90;;;;;;4938236;29;20062;-74
2022/03/15 07:19:48;;;;;;;14.82;9.05;;;6.10;99.90;;;;;;4955139;28;20053;-75
2022/03/15 07:22:14;;;;;;;16.85;9.30;;;6.20;99.90;;;;;;4954033;28;20051;-75
2022/03/15 07:24:41;;;;;;;25.60;9.95;;;6.20;99.90;;;;;;4955270;28;20051;-74
2022/03/15 07:27:08;;;;;;;18.38;10.45;;;6.30;99.90;;;;;;4942378;29;20054;-75
2022/03/15 07:29:35;;;;;;;12.43;8.32;;;6.30;99.90;;;;;;4955455;28;20058;-74
2022/03/15 07:32:02;;;;;;;14.82;9.02;;;6.40;99.90;;;;;;4954016;29;20054;-74
2022/03/15 07:34:32;;;;;;;18.08;10.05;;;6.40;99.90;;;;;;4954377;29;20051;-74
2022/03/15 07:37:01;;;;;;;19.02;9.60;;;6.40;99.90;;;;;;4954235;29;20491;-74
2022/03/15 07:39:28;;;;;;;16.23;10.43;;;6.40;99.90;;;;;;4937880;29;20054;-74
2022/03/15 07:41:57;;;;;;;17.15;9.60;;;6.50;99.90;;;;;;4954020;29;20051;-75
2022/03/15 07:44:24;;;;;;;20.30;11.55;;;6.50;99.90;;;;;;4953669;29;20047;-75
2022/03/15 07:46:51;;;;;;;15.57;10.10;;;6.60;99.90;;;;;;4954251;29;20059;-74
2022/03/15 07:49:18;;;;;;;16.83;9.82;;;6.60;99.90;;;;;;4954045;29;20419;-74
2022/03/15 07:51:46;;;;;;;24.48;10.95;;;6.70;99.90;;;;;;4937989;29;20047;-75
2022/03/15 07:54:13;;;;;;;20.38;10.35;;;6.70;99.90;;;;;;4937768;29;20055;-74
2022/03/15 07:56:44;;;;;;;18.98;10.32;;;6.80;99.90;;;;;;4938194;29;20398;-74
2022/03/15 07:59:11;;;;;;;15.68;9.98;;;6.90;99.90;;;;;;4953720;29;20066;-75
2022/03/15 08:01:37;;;;;;;17.65;10.32;;;7.00;99.90;;;;;;4954798;29;20055;-75
2022/03/15 08:04:05;;;;;;;17.20;10.20;;;7.00;99.90;;;;;;4953723;29;20398;-75
2022/03/15 08:06:35;;;;;;;20.00;12.98;;;7.10;99.90;;;;;;4953428;29;20152;-75
2022/03/15 08:09:05;;;;;;;18.05;9.32;;;7.20;99.90;;;;;;4954270;28;20107;-74
2022/03/15 08:11:33;;;;;;;14.82;10.77;;;7.30;99.90;;;;;;4938095;29;20048;-75
2022/03/15 08:14:01;;;;;;;19.65;10.45;;;7.30;99.90;;;;;;4954596;29;20368;-75
2022/03/15 08:16:28;;;;;;;17.70;9.82;;;7.40;99.90;;;;;;4937591;29;20487;-74
2022/03/15 08:18:55;;;;;;;16.52;11.40;;;7.50;99.90;;;;;;4937513;29;20447;-75
2022/03/15 08:21:23;;;;;;;26.73;12.50;;;7.50;99.90;;;;;;4937749;29;20094;-75
2022/03/15 08:23:50;;;;;;;18.55;10.60;;;7.60;99.90;;;;;;4953064;29;20061;-74
2022/03/15 08:26:17;;;;;;;21.13;11.10;;;7.70;99.90;;;;;;4953187;29;20051;-74
2022/03/15 08:28:45;;;;;;;25.40;12.15;;;7.70;99.90;;;;;;4952937;29;20059;-75
2022/03/15 08:31:12;;;;;;;18.45;11.18;;;7.80;99.90;;;;;;4953437;29;20051;-74
2022/03/15 08:33:39;;;;;;;18.52;10.98;;;7.90;99.90;;;;;;4954297;28;20051;-75
2022/03/15 08:36:06;;;;;;;19.00;10.77;;;8.00;99.90;;;;;;4955474;29;20129;-74
2022/03/15 08:38:36;;;;;;;18.23;10.90;;;8.10;99.90;;;;;;4954865;28;20055;-74
2022/03/15 08:41:04;;;;;;;29.75;12.48;;;8.10;99.90;;;;;;4954155;28;20487;-75
2022/03/15 08:43:31;;;;;;;16.77;10.82;;;8.20;99.90;;;;;;4953110;29;20050;-74
2022/03/15 08:45:58;;;;;;;15.93;10.55;;;8.30;99.90;;;;;;4927095;29;20062;-74
2022/03/15 08:48:28;;;;;;;19.27;11.00;;;8.40;99.90;;;;;;4951713;29;20055;-75
2022/03/15 08:50:55;;;;;;;19.63;12.50;;;8.50;99.90;;;;;;4953065;29;20054;-74
2022/03/15 08:53:22;;;;;;;18.35;10.65;;;8.50;99.90;;;;;;4943962;28;20548;-74
2022/03/15 08:55:50;;;;;;;21.40;11.80;;;8.60;99.90;;;;;;4967488;28;20507;-74
2022/03/15 08:58:17;;;;;;;21.63;11.90;;;8.60;99.90;;;;;;4952953;29;20404;-75
2022/03/15 09:00:44;;;;;;;23.75;11.57;;;8.70;99.90;;;;;;4936867;29;20055;-75
2022/03/15 09:03:11;;;;;;;21.02;11.30;;;8.80;99.90;;;;;;4952210;29;20435;-75
2022/03/15 09:05:38;;;;;;;18.40;10.52;;;8.80;99.90;;;;;;4953016;29;20138;-75
2022/03/15 09:08:05;;;;;;;22.60;10.70;;;9.00;99.90;;;;;;4953420;28;20498;-75
2022/03/15 09:10:32;;;;;;;14.68;9.20;;;9.10;99.90;;;;;;4921400;29;20487;-75
2022/03/15 09:13:03;;;;;;;15.10;8.52;;;9.20;99.90;;;;;;4953700;28;20146;-74
2022/03/15 09:15:30;;;;;;;16.25;8.75;;;9.30;99.90;;;;;;4953312;29;20055;-75
2022/03/15 09:17:59;;;;;;;15.88;9.15;;;9.50;99.90;;;;;;4953927;29;20079;-74
2022/03/15 09:20:26;;;;;;;15.93;9.30;;;9.60;99.90;;;;;;4952886;29;20070;-74
2022/03/15 09:22:54;;;;;;;17.20;9.27;;;9.80;99.90;;;;;;4955363;28;20078;-74
2022/03/15 09:25:21;;;;;;;15.60;9.30;;;9.90;99.90;;;;;;4970792;28;20046;-75
2022/03/15 09:27:48;;;;;;;18.77;8.10;;;10.00;99.90;;;;;;4952395;29;20055;-75
2022/03/15 09:30:15;;;;;;;19.65;8.00;;;10.10;99.90;;;;;;4937057;29;20399;-75
2022/03/15 09:32:42;;;;;;;9.80;6.32;;;10.20;99.90;;;;;;4952704;29;20067;-75
2022/03/15 09:35:09;;;;;;;15.98;7.40;;;10.30;99.90;;;;;;4952358;29;20069;-75
2022/03/15 09:37:36;;;;;;;10.90;6.75;;;10.50;99.90;;;;;;4936792;29;20058;-75
2022/03/15 09:40:08;;;;;;;16.27;6.32;;;10.60;99.90;;;;;;4952488;29;20122;-75
2022/03/15 09:42:35;;;;;;;12.55;5.65;;;10.70;99.90;;;;;;4952701;29;20143;-75
2022/03/15 09:45:03;;;;;;;14.55;5.78;;;10.70;99.90;;;;;;4952745;28;20051;-75
2022/03/15 09:47:35;;;;;;;16.23;6.05;;;10.80;99.50;;;;;;4957412;28;20051;-75
2022/03/15 09:50:03;;;;;;;;;;;10.90;99.70;;;;;;4925507;29;20098;-75
2022/03/15 09:52:30;;;;;;;11.75;3.80;;;11.10;97.20;;;;;;4956572;28;19949;-75
2022/03/15 09:54:57;;;;;;;13.35;4.43;;;11.20;96.00;;;;;;4976887;28;20046;-75
2022/03/15 09:57:24;;;;;;;8.07;2.97;;;11.30;95.30;;;;;;4958953;28;20057;-75
2022/03/15 09:59:51;;;;;;;16.17;4.28;;;11.50;93.10;;;;;;4955718;29;20483;-76
2022/03/15 10:02:18;;;;;;;14.90;4.20;;;11.60;92.20;;;;;;4939760;29;20051;-76
2022/03/15 10:04:50;;;;;;;8.27;4.18;;;11.70;92.20;;;;;;4941154;29;20095;-76
2022/03/15 10:07:18;;;;;;;8.57;3.45;;;11.80;91.70;;;;;;4955847;29;20051;-76
2022/03/15 10:09:45;;;;;;;9.10;2.97;;;11.80;90.70;;;;;;4955423;29;20125;-73
2022/03/15 10:12:13;;;;;;;10.77;4.25;;;11.80;89.80;;;;;;4939841;29;20402;-74
2022/03/15 10:14:45;;;;;;;14.45;4.32;;;11.90;89.60;;;;;;4956434;28;20059;-75
2022/03/15 10:17:14;;;;;;;10.95;4.00;;;11.90;90.30;;;;;;4955854;29;20057;-75
2022/03/15 10:19:54;;;;;;;8.07;3.05;;;12.00;90.40;;;;;;4955602;29;20130;-74
2022/03/15 10:22:22;;;;;;;8.18;3.53;;;12.10;88.70;;;;;;4940062;29;20043;-74
2022/03/15 10:24:49;;;;;;;7.57;2.78;;;12.10;88.50;;;;;;4974148;28;20062;-75
2022/03/15 10:27:17;;;;;;;11.77;3.97;;;12.20;90.00;;;;;;4958070;28;20133;-75
2022/03/15 10:29:43;;;;;;;10.30;3.50;;;12.20;87.50;;;;;;4939227;29;20070;-75
2022/03/15 10:32:15;;;;;;;8.07;2.92;;;12.30;86.40;;;;;;4955780;29;20047;-74
2022/03/15 10:34:45;;;;;;;7.10;2.88;;;12.40;84.70;;;;;;4956138;28;20462;-75
2022/03/15 10:37:14;;;;;;;14.23;3.50;;;12.40;87.50;;;;;;4939975;29;20105;-74
2022/03/15 10:39:42;;;;;;;13.00;3.78;;;12.40;85.90;;;;;;4954789;29;20438;-74
2022/03/15 10:42:12;;;;;;;9.52;3.05;;;12.40;85.00;;;;;;4956620;28;20051;-74
2022/03/15 10:44:39;;;;;;;;;;;12.50;83.90;;;;;;4955781;29;20086;-75
2022/03/15 10:47:18;;;;;;;18.23;6.82;;;12.50;81.10;;;;;;4956227;28;19922;-74
2022/03/15 10:49:48;;;;;;;10.43;4.07;;;12.50;81.10;;;;;;4954698;29;20483;-74
2022/03/15 10:52:28;;;;;;;10.18;3.00;;;12.50;81.50;;;;;;4954247;29;20502;-74
2022/03/15 10:54:55;;;;;;;;;;;12.50;80.10;;;;;;4935762;29;20056;-74
2022/03/15 10:57:25;;;;;;;10.48;3.33;;;12.60;79.60;;;;;;4952239;28;19922;-75
2022/03/15 10:59:54;;;;;;;8.68;2.83;;;12.60;82.00;;;;;;4954919;29;20089;-76
2022/03/15 11:02:30;;;;;;;12.70;4.10;;;12.70;80.90;;;;;;4954613;29;20559;-75
2022/03/15 11:04:57;;;;;;;8.55;2.38;;;12.80;79.60;;;;;;4954745;29;20107;-75
2022/03/15 11:07:24;;;;;;;10.15;3.28;;;12.80;79.90;;;;;;4954753;29;20055;-74
2022/03/15 11:09:57;;;;;;;8.80;2.92;;;12.90;78.10;;;;;;4938255;29;20082;-74
2022/03/15 11:12:23;;;;;;;10.63;3.00;;;13.00;77.60;;;;;;4954029;29;20055;-74
2022/03/15 11:14:57;;;;;;;10.90;2.78;;;13.10;76.90;;;;;;4954568;29;20546;-76
2022/03/15 11:17:25;;;;;;;8.90;3.13;;;13.30;77.60;;;;;;4954857;29;20055;-74
2022/03/15 11:19:57;;;;;;;9.15;3.67;;;13.50;77.50;;;;;;4954370;29;20146;-75
2022/03/15 11:22:27;;;;;;;9.38;3.10;;;13.50;76.60;;;;;;4956147;29;20059;-74
2022/03/15 11:25:17;;;;;;;7.80;3.35;;;13.60;76.30;;;;;;4954058;29;20388;-75
2022/03/15 11:27:45;;;;;;;8.43;3.38;;;13.70;74.30;;;;;;4919323;29;20056;-74
2022/03/15 11:30:14;;;;;;;9.95;3.50;;;13.70;75.90;;;;;;4919050;29;20055;-74
2022/03/15 11:32:41;;;;;;;10.30;3.40;;;13.70;76.20;;;;;;4935258;29;20135;-75
2022/03/15 11:35:10;;;;;;;9.40;4.03;;;13.70;77.60;;;;;;4934745;29;20058;-75
2022/03/15 11:37:40;;;;;;;7.55;3.65;;;13.70;76.20;;;;;;4938407;29;20447;-75
2022/03/15 11:40:10;;;;;;;8.27;3.05;;;13.60;74.10;;;;;;4953604;29;20055;-75
2022/03/15 11:42:43;;;;;;;9.25;3.92;;;13.60;74.00;;;;;;4938357;29;20057;-75
2022/03/15 11:45:28;;;;;;;9.30;3.47;;;13.60;76.40;;;;;;4938631;29;20376;-74
2022/03/15 11:48:21;;;;;;;10.77;4.30;;;13.60;74.30;;;;;;4939391;29;20051;-74
2022/03/15 11:50:58;;;;;;;11.60;3.97;;;13.60;74.20;;;;;;4953831;29;20058;-75
2022/03/15 11:53:42;;;;;;;8.45;3.50;;;13.60;75.20;;;;;;4938227;29;20054;-75
2022/03/15 11:56:22;;;;;;;8.32;3.80;;;13.70;74.70;;;;;;4955022;28;20057;-75
2022/03/15 11:58:55;;;;;;;9.52;4.05;;;13.80;75.30;;;;;;4954177;29;20054;-75
2022/03/15 12:01:23;;;;;;;7.18;3.58;;;13.90;74.40;;;;;;4953459;29;20495;-74
2022/03/15 12:03:52;;;;;;;6.00;2.97;;;13.90;75.50;;;;;;4953774;29;20051;-75
2022/03/15 12:06:23;;;;;;;11.35;3.85;;;14.00;73.60;;;;;;4953147;29;20047;-75
2022/03/15 12:08:54;;;;;;;9.90;4.38;;;14.00;74.40;;;;;;4953538;28;20494;-75
2022/03/15 12:11:34;;;;;;;8.63;3.83;;;14.10;74.60;;;;;;4954671;28;20059;-75
2022/03/15 12:14:17;;;;;;;7.88;2.92;;;14.20;72.20;;;;;;4954810;28;20065;-75
2022/03/15 12:16:51;;;;;;;7.55;3.25;;;14.20;72.00;;;;;;4953358;29;20051;-75
2022/03/15 12:19:35;;;;;;;14.00;3.90;;;14.20;72.30;;;;;;4953294;29;20051;-75
2022/03/15 12:22:06;;;;;;;10.57;2.97;;;14.30;73.10;;;;;;4953487;29;20075;-75
2022/03/15 12:24:36;;;;;;;10.02;3.22;;;14.30;74.90;;;;;;4970144;28;20130;-75
2022/03/15 12:27:08;;;;;;;9.43;3.08;;;14.40;71.70;;;;;;4958646;28;20082;-74
2022/03/15 12:29:38;;;;;;;7.82;3.00;;;14.50;69.80;;;;;;4952763;29;20691;-75
2022/03/15 12:32:11;;;;;;;7.18;2.85;;;14.60;70.70;;;;;;4952933;29;20545;-75
2022/03/15 12:34:40;;;;;;;10.25;3.58;;;14.60;69.30;;;;;;4954245;28;20051;-75
2022/03/15 12:37:06;;;;;;;8.60;3.42;;;14.50;69.40;;;;;;4953199;29;20054;-75
2022/03/15 12:39:35;;;;;;;8.32;2.78;;;14.50;70.40;;;;;;4952948;29;20047;-75
2022/03/15 12:42:11;;;;;;;7.55;3.03;;;14.40;71.00;;;;;;4953403;29;20098;-75
2022/03/15 12:44:42;;;;;;;7.50;2.67;;;14.40;69.50;;;;;;4952825;29;20051;-75
2022/03/15 12:47:18;;;;;;;7.57;3.05;;;14.40;70.70;;;;;;4954132;28;20093;-75
2022/03/15 12:50:04;;;;;;;8.85;2.60;;;14.40;71.90;;;;;;4937942;29;20058;-74
2022/03/15 12:52:39;;;;;;;8.13;3.38;;;14.50;70.30;;;;;;4954814;28;20055;-75
2022/03/15 12:55:07;;;;;;;10.70;2.83;;;14.50;69.50;;;;;;4972200;28;20047;-75